Terminal Aerodrome Forecast
Issued by NWS

Home | Current Version | Previous Version | Text Only | Print | Product List | Glossary On
Versions: 1 2 3 4 5 6 7 8 9 10 11 12 13 14 15 16 17 18 19 20 21 22
000
FTUS43 KDLH 290500
TAFHIB
TAF
KHIB 290530Z 2906/3006 13005KT P6SM SCT015 BKN150
      TEMPO 2906/2908 6SM -SHRA BKN050
     FM290800 13005KT 6SM BR VCSH BKN015 OVC040
      TEMPO 2908/2912 4SM SHRA BKN007 OVC015
     FM291200 07005KT 5SM BR VCSH BKN015 OVC035
     FM291600 08006KT 3SM -SHRA BR OVC008
     FM292000 08005KT 6SM BR VCTS BKN015CB=

USA.gov is the U.S. government's official web portal to all federal, state and local government web resources and services.